Terminal Aerodrome Forecast
Issued by NWS

Home | Current Version | Previous Version | Graphics & Text | Print | Product List | Glossary On
Versions: 1 2 3 4 5 6 7 8 9 10 11 12
190
FTUS42 KMHX 252336
TAFISO
TAF
KISO 252336Z 2600/2624 18006KT P6SM SCT250
     FM260900 VRB03KT 5SM BR BKN200
     FM261200 VRB03KT P6SM BKN140
     FM261600 17007KT P6SM BKN050
      AMD LTD TO CLD VIS AND WIND=

USA.gov is the U.S. government's official web portal to all federal, state and local government web resources and services.